Pagina principale
METAR-TAF:

METAR-TAF

Aeroporti :

Passo Rolle, Italia

latitudine: 46-18N, longitudine: 011-47E, altezza: 2004 m

Osservazione

Il bollettino è stato emesso 49 minuti fa, alle 05:55 UTC
Vento 4 kt da nord
Temperature 8°C
Umidità 61%
Pressione 1012 hPa
Visibilità 10 km o più
Nuvoloso ad un'altezza di 4000 ft

METAR: LIVR 260555Z 36004KT 9999 BKN040 08/01 Q1012 RMK BKN MON CLD CIME VIS MIN 9999

Ora: 08:44 (06:44 UTC)


TAF: mancante

Osservazioni e previsioni meteorologiche di più di 4000 aeroporti (messaggi METAR e TAF).

Le stazioni disponibili sono rappresentate dai dischi gialli e rossi sulla carta.

Puntare il mouse per vedere il nome della stazione.

Clicca sopra per visualizzare le osservazioni e previsioni meteorologiche.

Per cambiare la mappa : fare clic sui pulsanti verdi con una croce nera per ingrandire, il pulsante verde con un trattino per diminuire, o sulla freccia verde per le mappe adiacenti.


METAR-TAF: